createdAt,value
2018-07-07T00:00:56.197Z,18.23
2018-07-07T00:04:00.087Z,10.10
2018-07-07T00:07:03.109Z,12.67
2018-07-07T00:10:07.942Z,9.27
2018-07-07T00:13:11.087Z,10.00
2018-07-07T00:16:14.190Z,10.57
2018-07-07T00:19:19.438Z,8.70
2018-07-07T00:22:22.369Z,6.60
2018-07-07T00:25:25.316Z,7.30
2018-07-07T00:28:29.576Z,6.47
2018-07-07T00:31:33.955Z,7.37
2018-07-07T00:34:38.037Z,8.43
2018-07-07T00:37:41.985Z,7.83
2018-07-07T00:40:46.069Z,7.33
2018-07-07T00:43:50.371Z,8.67
2018-07-07T00:46:53.383Z,7.23
2018-07-07T00:49:56.385Z,6.53
2018-07-07T00:53:01.424Z,7.50
2018-07-07T00:56:04.527Z,7.53
2018-07-07T00:59:09.554Z,7.90
2018-07-07T01:02:22.474Z,6.40
2018-07-07T01:05:34.001Z,9.67
2018-07-07T01:08:38.098Z,18.27
2018-07-07T01:11:42.238Z,10.97
2018-07-07T01:14:45.670Z,14.10
2018-07-07T01:17:49.709Z,11.10
2018-07-07T01:20:53.723Z,7.30
2018-07-07T01:23:56.857Z,7.27
2018-07-07T01:26:59.853Z,9.83
2018-07-07T01:30:03.191Z,9.33
2018-07-07T01:33:06.213Z,7.13
2018-07-07T01:36:09.187Z,7.27
2018-07-07T01:39:13.225Z,7.47
2018-07-07T01:42:17.420Z,8.37
2018-07-07T01:45:21.517Z,6.97
2018-07-07T01:48:24.535Z,8.80
2018-07-07T01:51:28.548Z,7.67
2018-07-07T01:54:32.571Z,7.67
2018-07-07T01:57:36.901Z,8.73
2018-07-07T02:00:40.245Z,7.00
2018-07-07T02:03:44.290Z,7.50
2018-07-07T02:06:48.297Z,6.67
2018-07-07T02:09:53.349Z,7.33
2018-07-07T02:12:56.305Z,7.07
2018-07-07T02:15:59.230Z,7.77
2018-07-07T02:19:02.317Z,7.23
2018-07-07T02:22:05.336Z,7.47
2018-07-07T02:25:09.365Z,8.23
2018-07-07T02:28:12.406Z,7.13
2018-07-07T02:31:15.431Z,7.57
2018-07-07T02:34:19.462Z,7.53
2018-07-07T02:37:24.439Z,7.33
2018-07-07T02:40:29.503Z,8.77
2018-07-07T02:43:32.486Z,8.87
2018-07-07T02:46:36.527Z,8.23
2018-07-07T02:49:41.545Z,7.83
2018-07-07T02:52:45.535Z,8.07
2018-07-07T02:55:48.655Z,8.03
2018-07-07T02:58:52.629Z,8.07
2018-07-07T03:01:56.636Z,8.23
2018-07-07T03:05:00.682Z,10.93
2018-07-07T03:08:04.726Z,7.60
2018-07-07T03:11:08.808Z,8.97
2018-07-07T03:14:12.766Z,10.77
2018-07-07T03:17:15.726Z,8.30
2018-07-07T03:20:18.774Z,9.13
2018-07-07T03:23:21.759Z,9.83
2018-07-07T03:26:25.851Z,8.33
2018-07-07T03:29:34.277Z,10.90
2018-07-07T03:32:39.548Z,8.77
2018-07-07T03:35:43.515Z,8.57
2018-07-07T03:38:46.461Z,9.73
2018-07-07T03:41:53.759Z,8.87
2018-07-07T03:44:56.794Z,9.87
2018-07-07T03:48:00.838Z,9.77
2018-07-07T03:51:04.830Z,9.97
2018-07-07T03:54:09.903Z,8.87
2018-07-07T03:57:12.965Z,8.63
2018-07-07T04:00:17.114Z,8.47
2018-07-07T04:03:20.199Z,9.30
2018-07-07T04:06:24.157Z,8.47
2018-07-07T04:09:27.195Z,7.87
2018-07-07T04:12:30.272Z,9.20
2018-07-07T04:15:34.367Z,9.23
2018-07-07T04:18:37.369Z,11.33
2018-07-07T04:21:40.334Z,8.73
2018-07-07T04:24:44.410Z,8.63
2018-07-07T04:27:47.420Z,9.77
2018-07-07T04:30:51.641Z,11.03
2018-07-07T04:33:54.679Z,8.33
2018-07-07T04:36:57.709Z,8.60
2018-07-07T04:40:01.725Z,10.23
2018-07-07T04:43:09.601Z,9.20
2018-07-07T04:46:14.625Z,9.47
2018-07-07T04:49:17.747Z,12.10
2018-07-07T04:52:20.767Z,9.67
2018-07-07T04:55:23.730Z,12.50
2018-07-07T04:58:26.797Z,11.33
2018-07-07T05:01:29.802Z,9.57
2018-07-07T05:04:32.916Z,9.87
2018-07-07T05:07:37.920Z,9.97
2018-07-07T05:10:41.979Z,10.13
2018-07-07T05:13:46.980Z,10.60
2018-07-07T05:16:52.025Z,10.33
2018-07-07T05:19:55.114Z,10.33
2018-07-07T05:22:58.102Z,10.63
2018-07-07T05:26:01.174Z,10.20
2018-07-07T05:29:04.150Z,9.03
2018-07-07T05:32:07.183Z,9.53
2018-07-07T05:35:10.062Z,9.20
2018-07-07T05:38:15.291Z,10.67
2018-07-07T05:41:19.284Z,10.70
2018-07-07T05:44:22.264Z,10.50
2018-07-07T05:47:30.245Z,10.57
2018-07-07T05:50:34.267Z,10.10
2018-07-07T05:53:38.308Z,12.37
2018-07-07T05:56:42.305Z,9.77
2018-07-07T05:59:46.302Z,10.67
2018-07-07T06:02:50.382Z,9.47
2018-07-07T06:05:54.330Z,11.53
2018-07-07T06:08:57.473Z,9.90
2018-07-07T06:12:00.546Z,9.50
2018-07-07T06:15:09.437Z,9.77
2018-07-07T06:18:12.490Z,10.43
2018-07-07T06:21:15.869Z,11.50
2018-07-07T06:24:19.943Z,11.13
2018-07-07T06:27:22.908Z,9.97
2018-07-07T06:30:27.094Z,10.87
2018-07-07T06:33:31.079Z,10.27
2018-07-07T06:36:35.092Z,10.77
2018-07-07T06:39:38.040Z,11.50
2018-07-07T06:42:42.129Z,12.80
2018-07-07T06:45:46.128Z,11.70
2018-07-07T06:48:49.221Z,10.70
2018-07-07T06:51:53.167Z,11.57
2018-07-07T06:55:00.398Z,9.87
2018-07-07T06:58:04.522Z,12.73
2018-07-07T07:01:07.529Z,9.27
2018-07-07T07:04:10.603Z,10.37
2018-07-07T07:07:14.743Z,10.37
2018-07-07T07:10:17.785Z,7.20
2018-07-07T07:13:20.759Z,9.03
2018-07-07T07:16:24.766Z,7.17
2018-07-07T07:19:30.925Z,11.07
2018-07-07T07:22:35.914Z,12.87
2018-07-07T07:25:39.959Z,8.30
2018-07-07T07:28:42.957Z,9.73
2018-07-07T07:31:47.941Z,8.10
2018-07-07T07:34:50.991Z,6.20
2018-07-07T07:37:55.073Z,9.30
2018-07-07T07:40:59.030Z,7.63
2018-07-07T07:44:02.102Z,7.20
2018-07-07T07:47:07.110Z,6.60
2018-07-07T07:50:10.107Z,6.73
2018-07-07T07:53:13.063Z,6.27
2018-07-07T07:56:17.143Z,7.33
2018-07-07T07:59:21.220Z,7.83
2018-07-07T08:02:24.321Z,8.23
2018-07-07T08:05:28.297Z,6.83
2018-07-07T08:08:33.333Z,9.87
2018-07-07T08:11:37.367Z,6.40
2018-07-07T08:14:41.381Z,6.53
2018-07-07T08:17:44.384Z,8.10
2018-07-07T08:20:48.339Z,6.30
2018-07-07T08:23:54.698Z,5.97
2018-07-07T08:26:59.753Z,6.60
2018-07-07T08:30:02.839Z,11.90
2018-07-07T08:33:05.805Z,6.27
2018-07-07T08:36:09.861Z,9.67
2018-07-07T08:39:12.788Z,5.60
2018-07-07T08:42:16.794Z,6.77
2018-07-07T08:45:19.950Z,6.23
2018-07-07T08:48:24.021Z,6.60
2018-07-07T08:51:26.998Z,5.73
2018-07-07T08:54:30.005Z,6.57
2018-07-07T08:57:34.050Z,7.73
2018-07-07T09:00:36.970Z,8.63
2018-07-07T09:03:41.959Z,6.10
2018-07-07T09:06:44.877Z,10.00
2018-07-07T09:09:49.899Z,9.17
2018-07-07T09:12:54.941Z,8.83
2018-07-07T09:15:57.969Z,8.70
2018-07-07T09:19:01.010Z,9.63
2018-07-07T09:22:05.951Z,7.90
2018-07-07T09:25:08.954Z,10.70
2018-07-07T09:28:13.949Z,8.97
2018-07-07T09:31:19.989Z,10.00
2018-07-07T09:34:24.086Z,13.13
2018-07-07T09:37:27.582Z,7.87
2018-07-07T09:40:31.587Z,9.23
2018-07-07T09:43:34.644Z,10.17
2018-07-07T09:46:38.629Z,9.20
2018-07-07T09:49:42.653Z,8.77
2018-07-07T09:52:45.611Z,12.77
2018-07-07T09:55:49.742Z,13.47
2018-07-07T09:58:53.699Z,7.90
2018-07-07T10:01:57.977Z,8.80
2018-07-07T10:05:01.913Z,8.47
2018-07-07T10:08:05.985Z,10.17
2018-07-07T10:11:08.905Z,7.43
2018-07-07T10:14:12.914Z,9.33
2018-07-07T10:17:15.947Z,9.33
2018-07-07T10:20:18.936Z,8.33
2018-07-07T10:23:25.662Z,9.50
2018-07-07T10:26:28.859Z,8.97
2018-07-07T10:29:31.855Z,8.37
2018-07-07T10:32:34.819Z,9.53
2018-07-07T10:35:37.800Z,7.53
2018-07-07T10:38:40.870Z,7.30
2018-07-07T10:41:43.962Z,6.90
2018-07-07T10:44:47.935Z,6.97
2018-07-07T10:47:51.978Z,4.97
2018-07-07T10:50:55.091Z,4.90
2018-07-07T10:53:59.054Z,5.43
2018-07-07T10:57:02.014Z,6.77
2018-07-07T11:00:05.669Z,7.80
2018-07-07T11:03:08.779Z,6.93
2018-07-07T11:06:11.928Z,5.40
2018-07-07T11:09:14.913Z,4.37
2018-07-07T11:12:18.981Z,4.53
2018-07-07T11:15:21.948Z,6.77
2018-07-07T11:18:24.918Z,4.13
2018-07-07T11:21:28.216Z,7.53
2018-07-07T11:24:31.198Z,4.00
2018-07-07T11:27:38.688Z,5.67
2018-07-07T11:30:42.697Z,4.50
2018-07-07T11:33:45.740Z,5.37
2018-07-07T11:36:49.877Z,5.57
2018-07-07T11:39:52.881Z,4.27
2018-07-07T11:42:55.855Z,4.83
2018-07-07T11:45:58.892Z,8.03
2018-07-07T11:49:03.980Z,5.10
2018-07-07T11:52:07.062Z,7.53
2018-07-07T11:55:10.249Z,5.13
2018-07-07T11:58:14.301Z,5.00
2018-07-07T12:01:19.366Z,5.43
2018-07-07T12:04:23.436Z,5.10
2018-07-07T12:07:27.397Z,5.47
2018-07-07T12:10:30.369Z,5.07
2018-07-07T12:13:33.408Z,4.57
2018-07-07T12:16:36.351Z,4.33
2018-07-07T12:19:39.358Z,4.07
2018-07-07T12:22:42.344Z,4.93
2018-07-07T12:25:46.341Z,4.23
2018-07-07T12:28:49.395Z,3.83
2018-07-07T12:31:52.469Z,4.87
2018-07-07T12:34:55.471Z,5.43
2018-07-07T12:37:58.465Z,5.17
2018-07-07T12:41:01.558Z,5.27
2018-07-07T12:44:04.561Z,3.10
2018-07-07T12:47:07.623Z,3.60
2018-07-07T12:50:10.649Z,5.83
2018-07-07T12:53:13.736Z,5.73
2018-07-07T12:56:16.836Z,3.97
2018-07-07T12:59:19.904Z,7.73
2018-07-07T13:02:22.949Z,5.07
2018-07-07T13:05:25.982Z,3.27
2018-07-07T13:08:29.083Z,5.00
2018-07-07T13:11:32.177Z,2.40
2018-07-07T13:14:35.333Z,2.63
2018-07-07T13:17:38.545Z,5.07
2018-07-07T13:20:41.654Z,3.13
2018-07-07T13:23:44.793Z,2.70
2018-07-07T13:26:48.897Z,2.10
2018-07-07T13:29:51.926Z,2.60
2018-07-07T13:32:55.051Z,4.97
2018-07-07T13:35:58.029Z,2.43
2018-07-07T13:39:01.002Z,3.67
2018-07-07T13:42:04.050Z,4.70
2018-07-07T13:45:07.054Z,2.20
2018-07-07T13:48:10.188Z,2.13
2018-07-07T13:51:13.218Z,4.17
2018-07-07T13:54:16.251Z,1.67
2018-07-07T13:57:19.326Z,3.57
2018-07-07T14:00:22.489Z,3.60
2018-07-07T14:03:25.456Z,2.43
2018-07-07T14:06:28.409Z,3.00
2018-07-07T14:09:31.528Z,1.30
2018-07-07T14:12:34.441Z,2.53
2018-07-07T14:15:37.414Z,5.23
2018-07-07T14:18:40.386Z,2.90
2018-07-07T14:21:43.394Z,1.13
2018-07-07T14:24:46.384Z,1.43
2018-07-07T14:27:49.420Z,1.40
2018-07-07T14:30:52.473Z,1.93
2018-07-07T14:33:55.525Z,2.77
2018-07-07T14:36:58.527Z,1.63
2018-07-07T14:40:01.642Z,3.27
2018-07-07T14:43:04.924Z,1.57
2018-07-07T14:46:08.054Z,1.30
2018-07-07T14:49:11.110Z,1.77
2018-07-07T14:52:14.038Z,1.53
2018-07-07T14:55:18.217Z,1.10
2018-07-07T14:58:21.232Z,1.37
2018-07-07T15:01:24.343Z,2.27
2018-07-07T15:04:27.430Z,2.47
2018-07-07T15:07:30.669Z,0.90
2018-07-07T15:10:33.687Z,1.27
2018-07-07T15:13:36.668Z,1.33
2018-07-07T15:16:39.731Z,3.00
2018-07-07T15:19:42.800Z,1.20
2018-07-07T15:22:46.035Z,1.73
2018-07-07T15:25:48.985Z,2.53
2018-07-07T15:28:52.061Z,1.17
2018-07-07T15:31:55.089Z,2.30
2018-07-07T15:34:58.173Z,2.93
2018-07-07T15:38:01.249Z,1.50
2018-07-07T15:41:04.353Z,3.60
2018-07-07T15:44:07.378Z,1.53
2018-07-07T15:47:10.373Z,1.57
2018-07-07T15:50:13.400Z,1.23
2018-07-07T15:53:16.420Z,0.73
2018-07-07T15:56:19.553Z,1.73
2018-07-07T15:59:22.587Z,0.87
2018-07-07T16:02:25.647Z,1.20
2018-07-07T16:05:28.667Z,1.80
2018-07-07T16:08:31.829Z,1.00
2018-07-07T16:11:34.993Z,2.20
2018-07-07T16:14:38.157Z,2.23
2018-07-07T16:17:41.177Z,1.23
2018-07-07T16:20:46.268Z,1.80
2018-07-07T16:23:49.275Z,3.27
2018-07-07T16:26:52.402Z,0.90
2018-07-07T16:29:55.434Z,1.57
2018-07-07T16:32:58.550Z,1.87
2018-07-07T16:36:01.589Z,4.00
2018-07-07T16:39:05.157Z,1.40
2018-07-07T16:42:08.133Z,1.00
2018-07-07T16:45:11.125Z,1.53
2018-07-07T16:48:14.235Z,2.53
2018-07-07T16:51:17.282Z,2.00
2018-07-07T16:54:21.170Z,2.20
2018-07-07T16:57:24.383Z,0.80
2018-07-07T17:00:27.472Z,1.17
2018-07-07T17:03:30.553Z,2.77
2018-07-07T17:06:33.636Z,1.57
2018-07-07T17:09:36.869Z,2.20
2018-07-07T17:12:41.198Z,1.57
2018-07-07T17:15:44.327Z,1.17
2018-07-07T17:18:47.858Z,2.67
2018-07-07T17:21:51.142Z,1.40
2018-07-07T17:24:54.850Z,0.67
2018-07-07T17:27:58.050Z,1.80
2018-07-07T17:31:02.106Z,3.47
2018-07-07T17:34:05.237Z,1.80
2018-07-07T17:37:08.270Z,1.97
2018-07-07T17:40:11.653Z,4.77
2018-07-07T17:43:14.787Z,1.23
2018-07-07T17:46:18.009Z,4.23
2018-07-07T17:49:22.194Z,3.43
2018-07-07T17:52:25.154Z,5.30
2018-07-07T17:55:28.327Z,13.03
2018-07-07T17:58:32.388Z,8.73
2018-07-07T18:01:35.767Z,12.03
2018-07-07T18:04:38.906Z,9.17
2018-07-07T18:07:42.958Z,4.73
2018-07-07T18:10:46.062Z,9.33
2018-07-07T18:13:49.027Z,4.60
2018-07-07T18:16:52.110Z,4.10
2018-07-07T18:19:55.167Z,3.60
2018-07-07T18:22:58.204Z,4.47
2018-07-07T18:26:01.312Z,4.33
2018-07-07T18:29:04.430Z,22.90
2018-07-07T18:32:07.401Z,4.33
2018-07-07T18:35:10.428Z,3.70
2018-07-07T18:38:13.493Z,2.20
2018-07-07T18:41:16.529Z,11.67
2018-07-07T18:44:19.547Z,4.97
2018-07-07T18:47:22.489Z,9.43
2018-07-07T18:50:25.457Z,6.00
2018-07-07T18:53:28.504Z,5.40
2018-07-07T18:56:31.597Z,5.40
2018-07-07T18:59:34.557Z,4.10
2018-07-07T19:02:37.545Z,4.97
2018-07-07T19:05:40.562Z,4.13
2018-07-07T19:08:43.591Z,2.20
2018-07-07T19:11:46.745Z,3.60
2018-07-07T19:14:49.807Z,2.00
2018-07-07T19:17:53.776Z,1.70
2018-07-07T19:21:02.246Z,3.10
2018-07-07T19:24:11.759Z,2.87
2018-07-07T19:27:14.756Z,2.67
2018-07-07T19:30:17.688Z,2.23
2018-07-07T19:33:26.229Z,3.80
2018-07-07T19:36:34.829Z,1.67
2018-07-07T19:39:37.861Z,3.50
2018-07-07T19:42:40.909Z,1.70
2018-07-07T19:45:43.939Z,2.57
2018-07-07T19:48:47.906Z,1.50
2018-07-07T19:51:50.967Z,2.83
2018-07-07T19:54:54.000Z,3.20
2018-07-07T19:57:56.957Z,2.43
2018-07-07T20:01:00.049Z,1.80
2018-07-07T20:04:03.021Z,6.57
2018-07-07T20:07:07.045Z,3.30
2018-07-07T20:10:11.046Z,3.10
2018-07-07T20:13:14.177Z,4.37
2018-07-07T20:16:20.311Z,2.17
2018-07-07T20:19:24.133Z,2.37
2018-07-07T20:22:27.181Z,3.07
2018-07-07T20:25:30.232Z,1.90
2018-07-07T20:28:39.082Z,3.03
2018-07-07T20:31:48.461Z,2.90
2018-07-07T20:34:51.577Z,1.67
2018-07-07T20:37:54.677Z,16.07
2018-07-07T20:40:57.697Z,7.33
2018-07-07T20:44:00.740Z,3.53
2018-07-07T20:47:03.933Z,3.67
2018-07-07T20:50:07.019Z,2.37
2018-07-07T20:53:10.128Z,1.47
2018-07-07T20:56:13.208Z,3.20
2018-07-07T20:59:16.324Z,2.43
2018-07-07T21:02:19.354Z,3.93
2018-07-07T21:05:23.422Z,3.87
2018-07-07T21:08:26.473Z,3.13
2018-07-07T21:11:30.242Z,2.10
2018-07-07T21:14:33.203Z,2.60
2018-07-07T21:17:36.246Z,3.83
2018-07-07T21:20:39.239Z,2.73
2018-07-07T21:23:43.387Z,2.63
2018-07-07T21:26:46.393Z,3.07
2018-07-07T21:29:49.470Z,3.97
2018-07-07T21:32:52.507Z,5.93
2018-07-07T21:35:55.470Z,1.13
2018-07-07T21:38:58.497Z,3.63
2018-07-07T21:42:01.494Z,2.83
2018-07-07T21:45:05.553Z,18.17
2018-07-07T21:48:08.534Z,12.47
2018-07-07T21:51:11.456Z,7.20
2018-07-07T21:54:15.548Z,12.30
2018-07-07T21:57:24.207Z,2.93
2018-07-07T22:00:32.742Z,3.43
2018-07-07T22:03:41.354Z,6.50
2018-07-07T22:06:52.016Z,2.27
2018-07-07T22:09:56.065Z,2.77
2018-07-07T22:12:59.125Z,1.20
2018-07-07T22:16:03.258Z,4.03
2018-07-07T22:19:07.260Z,2.20
2018-07-07T22:22:10.839Z,3.17
2018-07-07T22:25:14.883Z,1.10
2018-07-07T22:28:20.131Z,2.37
2018-07-07T22:31:24.210Z,3.53
2018-07-07T22:34:31.365Z,2.00
2018-07-07T22:37:34.325Z,1.93
2018-07-07T22:40:37.322Z,3.23
2018-07-07T22:43:40.401Z,2.37
2018-07-07T22:46:43.472Z,2.00
2018-07-07T22:49:47.587Z,2.80
2018-07-07T22:52:50.638Z,2.70
2018-07-07T22:55:53.568Z,3.90
2018-07-07T22:58:56.621Z,4.17
2018-07-07T23:01:59.611Z,3.47
2018-07-07T23:05:03.286Z,3.57
2018-07-07T23:08:06.418Z,3.43
2018-07-07T23:11:09.410Z,3.20
2018-07-07T23:14:13.494Z,1.87
2018-07-07T23:17:16.456Z,4.07
2018-07-07T23:20:19.866Z,4.03
2018-07-07T23:23:22.950Z,1.27
2018-07-07T23:26:26.332Z,2.87
2018-07-07T23:29:29.700Z,3.37
2018-07-07T23:32:32.770Z,2.20
2018-07-07T23:35:35.913Z,3.43
2018-07-07T23:38:39.376Z,2.40
2018-07-07T23:41:42.445Z,5.17
2018-07-07T23:44:45.579Z,4.83
2018-07-07T23:47:48.517Z,2.40
2018-07-07T23:50:51.627Z,2.50
2018-07-07T23:53:55.773Z,3.53
2018-07-07T23:56:58.823Z,9.40
